Time;durP1;ratioP1;P1;durP2;ratioP2;P2;SDS_P1;SDS_P2;PMS_P1;PMS_P2;Temp;Humidity;BMP_temperature;BMP_pressure;BME280_temperature;BME280_humidity;BME280_pressure;Samples;Min_cycle;Max_cycle;Signal;HPM_P1;HPM_P2
2022/10/04 00:01:48;;;;;;;22.13;10.50;;;;;;;8.17;100.00;101210.59;5113723;28;20131;-71
2022/10/04 00:04:31;;;;;;;16.25;9.50;;;;;;;8.30;100.00;101242.81;5114064;28;20040;-73
2022/10/04 00:07:02;;;;;;;16.10;9.90;;;;;;;8.28;100.00;101244.63;5113609;28;20383;-72
2022/10/04 00:09:34;;;;;;;17.50;10.52;;;;;;;8.25;100.00;101245.56;5113979;28;20052;-72
2022/10/04 00:12:03;;;;;;;19.83;10.45;;;;;;;8.17;100.00;101226.44;5112625;28;20048;-72
2022/10/04 00:14:38;;;;;;;19.30;10.82;;;;;;;8.09;100.00;101223.97;5107825;28;20050;-73
2022/10/04 00:17:11;;;;;;;20.50;11.32;;;;;;;8.08;100.00;101227.50;5112622;28;20047;-73
2022/10/04 00:19:56;;;;;;;20.27;11.45;;;;;;;8.15;100.00;101227.38;5113623;28;20139;-71
2022/10/04 00:22:24;;;;;;;25.05;11.63;;;;;;;8.10;100.00;101225.69;5113586;28;20055;-71
2022/10/04 00:24:59;;;;;;;17.98;11.07;;;;;;;8.01;100.00;101225.94;5108790;28;20636;-73
2022/10/04 00:27:27;;;;;;;20.48;10.98;;;;;;;8.04;100.00;101246.06;5108996;28;20495;-75
2022/10/04 00:30:03;;;;;;;19.17;10.85;;;;;;;8.00;100.00;101233.88;5109097;28;20078;-71
2022/10/04 00:32:38;;;;;;;20.48;12.18;;;;;;;7.96;100.00;101233.06;5111277;28;20052;-73
2022/10/04 00:35:23;;;;;;;22.13;11.43;;;;;;;7.90;100.00;101233.19;5111288;28;20415;-71
2022/10/04 00:38:14;;;;;;;18.58;11.00;;;;;;;7.85;100.00;101227.19;5111617;28;20045;-74
2022/10/04 00:40:49;;;;;;;20.63;11.73;;;;;;;7.78;100.00;101211.50;5099210;28;20054;-73
2022/10/04 00:43:24;;;;;;;24.95;12.25;;;;;;;7.65;100.00;101197.75;5104640;28;20059;-72
2022/10/04 00:45:57;;;;;;;23.58;11.23;;;;;;;7.77;100.00;101215.03;5109225;28;20048;-72
2022/10/04 00:48:30;;;;;;;19.83;11.55;;;;;;;7.80;100.00;101215.84;5111558;28;20055;-71
2022/10/04 00:51:19;;;;;;;19.95;11.52;;;;;;;7.81;100.00;101208.81;5111077;28;20054;-72
2022/10/04 00:53:48;;;;;;;24.65;12.00;;;;;;;7.88;100.00;101213.03;5111077;28;20142;-71
2022/10/04 00:56:25;;;;;;;23.15;11.73;;;;;;;7.68;100.00;101200.31;5111345;28;20109;-72
2022/10/04 00:58:56;;;;;;;20.15;11.68;;;;;;;7.75;100.00;101223.00;5111429;28;20051;-74
2022/10/04 01:01:27;;;;;;;23.25;11.93;;;;;;;7.70;100.00;101228.38;5108873;28;20047;-73
2022/10/04 01:03:57;;;;;;;22.70;12.23;;;;;;;7.64;100.00;101214.47;5109180;28;20044;-74
2022/10/04 01:06:25;;;;;;;18.83;11.53;;;;;;;7.60;100.00;101224.19;5111022;28;20062;-74
2022/10/04 01:09:03;;;;;;;20.23;11.15;;;;;;;7.55;100.00;101220.81;5110948;28;20135;-72
2022/10/04 01:11:36;;;;;;;17.67;10.77;;;;;;;7.35;100.00;101186.97;5110842;28;20138;-72
2022/10/04 01:14:10;;;;;;;19.40;12.00;;;;;;;7.29;100.00;101187.09;5110471;28;20048;-73
2022/10/04 01:16:37;;;;;;;20.65;12.48;;;;;;;7.25;100.00;101192.44;5110260;28;20492;-75
2022/10/04 01:19:23;;;;;;;19.75;11.57;;;;;;;7.35;100.00;101221.22;5105739;28;20048;-74
2022/10/04 01:22:08;;;;;;;21.15;12.43;;;;;;;7.34;100.00;101224.75;5108012;28;20051;-74
2022/10/04 01:24:39;;;;;;;17.88;10.82;;;;;;;7.30;100.00;101220.44;5103378;28;20106;-76
2022/10/04 01:27:31;;;;;;;19.20;11.85;;;;;;;7.31;100.00;101219.53;5095302;28;20048;-75
2022/10/04 01:29:59;;;;;;;16.58;11.10;;;;;;;7.17;100.00;101187.34;5110211;28;20407;-72
2022/10/04 01:32:30;;;;;;;18.85;11.35;;;;;;;7.18;100.00;101170.66;5110305;28;20575;-72
2022/10/04 01:34:57;;;;;;;20.70;10.98;;;;;;;7.25;100.00;101185.41;5108091;28;20183;-75
2022/10/04 01:37:25;;;;;;;19.42;11.43;;;;;;;7.23;100.00;101187.22;5110623;28;20047;-72
2022/10/04 01:39:51;;;;;;;21.08;12.35;;;;;;;7.17;100.00;101183.84;5111288;28;20048;-76
2022/10/04 01:42:28;;;;;;;24.35;13.32;;;;;;;7.07;100.00;101159.47;5112666;28;20112;-75
2022/10/04 01:45:09;;;;;;;22.73;12.75;;;;;;;7.15;100.00;101183.88;5110957;28;20371;-72
2022/10/04 01:47:44;;;;;;;24.50;12.75;;;;;;;7.20;100.00;101186.41;5112101;28;20048;-75
2022/10/04 01:50:27;;;;;;;30.92;14.27;;;;;;;7.15;100.00;101172.47;5111735;28;20376;-72
2022/10/04 01:53:00;;;;;;;27.45;13.50;;;;;;;7.17;100.00;101187.34;5099492;28;20082;-74
2022/10/04 01:55:34;;;;;;;25.58;13.63;;;;;;;7.15;100.00;101177.72;5109984;28;20151;-70
2022/10/04 01:58:10;;;;;;;22.92;13.45;;;;;;;7.13;100.00;101161.97;5109403;28;20557;-72
2022/10/04 02:00:44;;;;;;;23.42;13.68;;;;;;;7.32;100.00;101172.97;5109557;28;20131;-72
2022/10/04 02:03:19;;;;;;;32.85;13.85;;;;;;;7.39;100.00;101169.34;5110270;28;20092;-74
2022/10/04 02:05:59;;;;;;;35.78;13.88;;;;;;;7.28;100.00;101151.09;5109869;28;20043;-77
2022/10/04 02:08:29;;;;;;;32.60;13.87;;;;;;;7.43;100.00;101178.00;5107815;28;20135;-72
2022/10/04 02:10:57;;;;;;;44.50;16.10;;;;;;;7.45;100.00;101171.81;5105412;28;20479;-71
2022/10/04 02:13:28;;;;;;;36.58;14.52;;;;;;;7.45;100.00;101174.44;5109222;28;20393;-71
2022/10/04 02:15:57;;;;;;;25.67;14.40;;;;;;;7.32;100.00;101147.50;5108663;28;20066;-73
2022/10/04 02:18:25;;;;;;;28.88;13.82;;;;;;;7.49;100.00;101162.09;5109595;28;20048;-74
2022/10/04 02:20:53;;;;;;;30.20;14.15;;;;;;;7.52;100.00;101165.53;5110036;28;20047;-73
2022/10/04 02:23:23;;;;;;;44.03;14.20;;;;;;;7.52;100.00;101157.63;5109690;28;20043;-72
2022/10/04 02:25:50;;;;;;;25.77;13.05;;;;;;;7.51;100.00;101155.88;5101883;28;20058;-74
2022/10/04 02:28:17;;;;;;;21.77;12.88;;;;;;;7.51;100.00;101144.47;5110089;28;20047;-74
2022/10/04 02:33:42;;;;;;;;;;;;;;;7.59;100.00;101147.78;5110141;28;20044;-74
2022/10/04 02:36:09;;;;;;;33.88;13.77;;;;;;;7.61;100.00;101144.22;5109551;28;19920;-74
2022/10/04 02:39:06;;;;;;;28.20;13.48;;;;;;;7.63;100.00;101141.56;5110111;28;20663;-73
2022/10/04 02:41:47;;;;;;;28.67;12.63;;;;;;;7.61;100.00;101146.00;5072047;28;20043;-73
2022/10/04 02:44:41;;;;;;;35.08;14.10;;;;;;;7.60;100.00;101142.47;5106425;28;20055;-73
2022/10/04 02:47:28;;;;;;;25.95;12.73;;;;;;;7.66;100.00;101134.44;5108985;28;20487;-73
2022/10/04 02:50:05;;;;;;;29.70;15.30;;;;;;;7.72;100.00;101143.97;5109531;28;20100;-73
2022/10/04 02:52:43;;;;;;;20.88;12.57;;;;;;;7.82;100.00;101149.91;5110329;28;20086;-72
2022/10/04 02:55:23;;;;;;;21.20;12.60;;;;;;;7.86;100.00;101146.31;5109979;28;20036;-70
2022/10/04 02:57:51;;;;;;;23.50;12.93;;;;;;;7.87;100.00;101156.78;5106324;28;20047;-71
2022/10/04 03:00:27;;;;;;;20.88;12.35;;;;;;;7.79;100.00;101158.75;5108623;28;20044;-71
2022/10/04 03:03:28;;;;;;;20.02;11.70;;;;;;;7.79;100.00;101158.75;5108280;28;20430;-72
2022/10/04 03:06:03;;;;;;;23.90;12.73;;;;;;;7.85;100.00;101155.97;5106120;28;20719;-73
2022/10/04 03:08:42;;;;;;;19.45;11.52;;;;;;;7.92;100.00;101147.00;5108360;28;20050;-73
2022/10/04 03:11:11;;;;;;;16.63;11.50;;;;;;;7.76;100.00;101111.34;5108309;28;20035;-73
2022/10/04 03:13:45;;;;;;;15.23;10.32;;;;;;;7.82;100.00;101129.69;5106455;28;20122;-74
2022/10/04 03:16:12;;;;;;;24.67;10.48;;;;;;;7.73;100.00;101132.50;5108798;28;20150;-71
2022/10/04 03:18:41;;;;;;;20.67;10.30;;;;;;;7.69;100.00;101149.31;5110712;28;20090;-75
2022/10/04 03:21:11;;;;;;;17.88;11.13;;;;;;;7.58;100.00;101148.69;5110031;28;20040;-71
2022/10/04 03:23:39;;;;;;;20.80;11.02;;;;;;;7.61;100.00;101140.72;5109737;28;20607;-74
2022/10/04 03:26:23;;;;;;;18.45;10.43;;;;;;;7.64;100.00;101146.78;5104995;28;20138;-75
2022/10/04 03:28:49;;;;;;;25.85;10.38;;;;;;;7.55;100.00;101146.16;5109637;28;20052;-73
2022/10/04 03:31:18;;;;;;;15.43;9.98;;;;;;;7.48;100.00;101136.63;5108988;28;20066;-72
2022/10/04 03:33:46;;;;;;;17.70;10.43;;;;;;;7.47;100.00;101132.25;5107256;28;20403;-70
2022/10/04 03:36:17;;;;;;;20.05;11.43;;;;;;;7.36;100.00;101106.16;5109056;28;20055;-72
2022/10/04 03:38:47;;;;;;;18.10;10.32;;;;;;;7.48;100.00;101123.44;5110286;28;20044;-76
2022/10/04 03:41:15;;;;;;;18.70;10.35;;;;;;;7.48;100.00;101120.81;5105839;28;20051;-75
2022/10/04 03:43:45;;;;;;;16.52;10.25;;;;;;;7.54;100.00;101128.59;5110303;28;20452;-74
2022/10/04 03:46:13;;;;;;;17.27;11.07;;;;;;;7.56;100.00;101118.84;5110065;28;20131;-74
2022/10/04 03:48:48;;;;;;;19.10;11.05;;;;;;;7.58;100.00;101131.09;5108131;28;20385;-73
2022/10/04 03:51:20;;;;;;;21.23;11.68;;;;;;;7.56;100.00;101125.00;5110070;28;20047;-71
2022/10/04 03:53:58;;;;;;;20.70;11.20;;;;;;;7.56;100.00;101119.72;5110226;28;20659;-72
2022/10/04 03:56:32;;;;;;;19.08;10.95;;;;;;;7.55;100.00;101130.34;5110548;28;20057;-73
2022/10/04 03:59:02;;;;;;;18.58;11.68;;;;;;;7.54;100.00;101118.91;5109912;28;20050;-77
2022/10/04 04:01:42;;;;;;;19.27;11.07;;;;;;;7.57;100.00;101118.81;5110351;28;20053;-71
2022/10/04 04:04:12;;;;;;;24.00;12.85;;;;;;;7.63;100.00;101123.09;5110114;28;20059;-72
2022/10/04 04:07:00;;;;;;;21.40;12.10;;;;;;;7.66;100.00;101123.03;5107878;28;20138;-74
2022/10/04 04:09:42;;;;;;;21.25;12.68;;;;;;;7.72;100.00;101117.59;5103763;28;20416;-70
2022/10/04 04:12:15;;;;;;;23.98;13.60;;;;;;;7.63;100.00;101091.47;5110233;28;20474;-73
2022/10/04 04:14:45;;;;;;;26.25;14.13;;;;;;;7.82;100.00;101115.63;5109864;28;20052;-72
2022/10/04 04:17:32;;;;;;;25.13;14.00;;;;;;;7.84;100.00;101104.16;5107628;28;20510;-71
2022/10/04 04:20:05;;;;;;;24.17;13.27;;;;;;;7.96;100.00;101102.97;5109051;28;20473;-72
2022/10/04 04:22:35;;;;;;;25.65;14.45;;;;;;;7.89;100.00;101078.50;5107315;28;20055;-71
2022/10/04 04:25:07;;;;;;;23.65;13.48;;;;;;;8.04;100.00;101107.13;5106396;28;20134;-72
2022/10/04 04:27:38;;;;;;;25.02;13.82;;;;;;;8.02;100.00;101101.06;5108914;28;20043;-72
2022/10/04 04:30:07;;;;;;;30.08;14.57;;;;;;;8.01;100.00;101107.22;5110069;28;20075;-73
2022/10/04 04:32:39;;;;;;;28.27;13.80;;;;;;;7.97;100.00;101108.22;5110046;28;20870;-73
2022/10/04 04:35:23;;;;;;;28.52;15.35;;;;;;;7.97;100.00;101117.88;5109419;28;20477;-72
2022/10/04 04:38:18;;;;;;;27.52;13.82;;;;;;;7.96;100.00;101105.59;5109854;28;20067;-75
2022/10/04 04:40:45;;;;;;;27.20;14.30;;;;;;;7.94;100.00;101105.63;5112477;28;20552;-74
2022/10/04 04:43:18;;;;;;;30.05;14.45;;;;;;;7.92;100.00;101101.31;5112974;28;20391;-71
2022/10/04 04:45:48;;;;;;;26.30;13.38;;;;;;;7.89;100.00;101099.59;5110286;28;20051;-72
2022/10/04 04:48:35;;;;;;;29.30;14.45;;;;;;;8.04;100.00;101098.34;5113617;28;20047;-73
2022/10/04 04:51:03;;;;;;;27.65;14.40;;;;;;;7.98;100.00;101077.44;5112961;28;20408;-71
2022/10/04 04:53:30;;;;;;;26.33;14.05;;;;;;;8.01;100.00;101070.31;5113301;28;20066;-74
2022/10/04 04:56:02;;;;;;;26.95;13.90;;;;;;;8.15;100.00;101095.47;5111753;28;20074;-71
2022/10/04 04:58:41;;;;;;;25.70;14.25;;;;;;;8.11;100.00;101102.56;5112929;28;20464;-73
2022/10/04 05:01:20;;;;;;;24.25;13.98;;;;;;;8.15;100.00;101092.81;5113273;28;20082;-74
2022/10/04 05:04:12;;;;;;;23.55;12.63;;;;;;;8.19;100.00;101099.72;5112951;28;20052;-73
2022/10/04 05:06:47;;;;;;;24.50;13.90;;;;;;;8.21;100.00;101096.16;5112344;28;20126;-74
2022/10/04 05:09:27;;;;;;;24.52;13.30;;;;;;;8.29;100.00;101101.25;5104869;28;20127;-73
2022/10/04 05:12:02;;;;;;;23.63;13.07;;;;;;;8.26;100.00;101094.25;5106998;28;20047;-71
2022/10/04 05:14:30;;;;;;;21.58;12.80;;;;;;;8.26;100.00;101110.09;5107437;28;20633;-73
2022/10/04 05:16:57;;;;;;;21.90;12.73;;;;;;;8.21;100.00;101106.69;5110407;28;20058;-74
2022/10/04 05:19:29;;;;;;;18.92;12.05;;;;;;;8.14;100.00;101099.00;5112912;28;20053;-73
2022/10/04 05:21:58;;;;;;;19.88;12.43;;;;;;;8.07;100.00;101112.34;5112953;28;20055;-73
2022/10/04 05:24:35;;;;;;;22.02;12.40;;;;;;;8.05;100.00;101110.63;5112197;28;20055;-71
2022/10/04 05:27:06;;;;;;;18.73;11.90;;;;;;;8.12;100.00;101106.94;5112296;28;20065;-70
2022/10/04 05:29:37;;;;;;;17.75;11.20;;;;;;;8.07;100.00;101099.16;5109790;28;20134;-73
2022/10/04 05:32:06;;;;;;;19.45;11.40;;;;;;;8.15;100.00;101112.16;5111842;28;20043;-74
2022/10/04 05:34:43;;;;;;;17.20;10.85;;;;;;;8.06;100.00;101112.38;5111911;28;20052;-74
2022/10/04 05:37:29;;;;;;;16.88;10.60;;;;;;;8.00;100.00;101121.31;5111822;28;20134;-74
2022/10/04 05:40:12;;;;;;;14.57;9.70;;;;;;;7.93;100.00;101108.31;5110625;28;20471;-77
2022/10/04 05:42:44;;;;;;;13.43;9.18;;;;;;;7.91;100.00;101121.53;5111833;28;20722;-72
2022/10/04 05:45:22;;;;;;;14.35;8.35;;;;;;;7.88;100.00;101108.41;5106843;28;20052;-73
2022/10/04 05:47:51;;;;;;;11.60;7.80;;;;;;;7.87;100.00;101108.47;5112343;28;20094;-73
2022/10/04 05:50:40;;;;;;;12.02;8.60;;;;;;;7.86;100.00;101115.53;5111929;28;20491;-74
2022/10/04 05:53:33;;;;;;;12.85;9.40;;;;;;;7.91;100.00;101113.63;5111998;28;20107;-71
2022/10/04 05:56:41;;;;;;;13.15;9.00;;;;;;;7.97;100.00;101121.41;5110259;28;20142;-71
2022/10/04 05:59:22;;;;;;;11.45;8.23;;;;;;;7.98;100.00;101112.56;5111493;28;20079;-73
2022/10/04 06:02:23;;;;;;;12.00;8.70;;;;;;;8.04;100.00;101108.91;5108453;28;20070;-71
2022/10/04 06:05:14;;;;;;;14.10;9.18;;;;;;;8.07;100.00;101114.97;5107278;28;20725;-71
2022/10/04 06:07:48;;;;;;;;;;;;;;;8.09;100.00;101121.09;5112159;28;20343;-72
2022/10/04 06:10:14;;;;;;;15.68;9.80;;;;;;;8.16;100.00;101128.84;5110890;28;19962;-70
2022/10/04 06:13:18;;;;;;;14.70;9.02;;;;;;;8.15;100.00;101132.41;5111717;28;20045;-72
2022/10/04 06:16:08;;;;;;;13.52;9.07;;;;;;;8.19;100.00;101144.56;5107418;28;20079;-71
2022/10/04 06:18:46;;;;;;;16.83;9.43;;;;;;;8.19;100.00;101134.03;5107248;28;20055;-70
2022/10/04 06:21:23;;;;;;;12.75;8.35;;;;;;;8.27;100.00;101135.56;5111580;28;20123;-74
2022/10/04 06:24:09;;;;;;;13.48;9.40;;;;;;;8.34;100.00;101128.41;5111524;28;20495;-71
2022/10/04 06:27:20;;;;;;;17.27;9.43;;;;;;;8.38;100.00;101145.88;5110324;28;20066;-71
2022/10/04 06:30:02;;;;;;;17.13;10.45;;;;;;;8.42;100.00;101144.91;5081293;28;20500;-74
2022/10/04 06:33:17;;;;;;;18.77;10.43;;;;;;;8.43;100.00;101141.34;5111238;28;20404;-72
2022/10/04 06:36:00;;;;;;;15.05;11.10;;;;;;;8.42;100.00;101142.25;5106291;28;20063;-73
2022/10/04 06:39:02;;;;;;;17.42;12.07;;;;;;;8.43;100.00;101149.28;5110456;28;20071;-76
2022/10/04 06:42:01;;;;;;;20.00;12.95;;;;;;;8.40;100.00;101144.06;5108504;28;20161;-70
2022/10/04 06:44:36;;;;;;;16.75;11.77;;;;;;;8.29;100.00;101125.00;5106750;28;20043;-73
2022/10/04 06:47:34;;;;;;;18.02;11.23;;;;;;;8.29;100.00;101123.22;5109568;28;20051;-72
2022/10/04 06:50:29;;;;;;;17.02;11.45;;;;;;;8.49;100.00;101151.78;5110559;28;20455;-71
2022/10/04 06:53:20;;;;;;;16.15;11.27;;;;;;;8.53;100.00;101145.47;5109139;28;20491;-74
2022/10/04 06:56:01;;;;;;;15.23;10.95;;;;;;;8.58;100.00;101153.28;5095224;28;20086;-72
2022/10/04 06:58:28;;;;;;;13.68;10.38;;;;;;;8.61;100.00;101138.22;5111082;28;20058;-76
2022/10/04 07:01:22;;;;;;;15.70;10.82;;;;;;;8.56;100.00;101119.00;5109841;28;20074;-71
2022/10/04 07:04:11;;;;;;;16.67;11.05;;;;;;;8.76;100.00;101126.38;5088698;28;20495;-72
2022/10/04 07:07:23;;;;;;;15.52;9.73;;;;;;;8.89;100.00;101129.53;5105069;28;20062;-73
2022/10/04 07:10:23;;;;;;;15.48;10.57;;;;;;;8.99;100.00;101128.34;5107684;28;20044;-72
2022/10/04 07:13:11;;;;;;;17.35;10.77;;;;;;;8.99;100.00;101105.44;5107797;28;20510;-72
2022/10/04 07:15:52;;;;;;;15.63;10.15;;;;;;;9.19;100.00;101099.59;5109222;28;20047;-70
2022/10/04 07:18:25;;;;;;;16.25;10.68;;;;;;;9.27;100.00;101100.22;5110439;28;20069;-71
2022/10/04 07:21:04;;;;;;;13.77;9.90;;;;;;;9.37;100.00;101117.53;5110497;28;20044;-72
2022/10/04 07:23:37;;;;;;;14.02;10.15;;;;;;;9.35;100.00;101079.72;5104048;28;20044;-74
2022/10/04 07:26:15;;;;;;;17.35;10.65;;;;;;;9.48;100.00;101111.91;5104231;28;20094;-73
2022/10/04 07:31:35;;;;;;;14.48;10.98;;;;;;;9.29;100.00;101100.16;5109457;28;20051;-70
2022/10/04 07:34:10;;;;;;;14.05;10.65;;;;;;;9.48;100.00;101117.19;5100140;28;20411;-72
2022/10/04 07:36:49;;;;;;;17.80;10.93;;;;;;;9.75;100.00;101123.41;5109840;28;20055;-71
2022/10/04 07:39:20;;;;;;;14.65;10.43;;;;;;;9.94;100.00;101106.00;5109686;28;20111;-73
2022/10/04 07:41:52;;;;;;;15.50;10.27;;;;;;;10.38;100.00;101123.09;5108533;28;20511;-70
2022/10/04 07:44:35;;;;;;;16.67;11.13;;;;;;;10.67;100.00;101127.34;5110118;28;20083;-75
2022/10/04 07:47:19;;;;;;;13.90;10.07;;;;;;;10.80;100.00;101119.81;5108411;28;20043;-72
2022/10/04 07:49:48;;;;;;;12.85;10.43;;;;;;;10.70;100.00;101119.31;5110069;28;20467;-72
2022/10/04 07:52:48;;;;;;;15.90;10.43;;;;;;;10.56;100.00;101132.16;5110710;28;20065;-72
2022/10/04 07:55:20;;;;;;;21.50;11.27;;;;;;;10.32;100.00;101117.13;5109723;28;20043;-73
2022/10/04 07:58:06;;;;;;;15.40;10.70;;;;;;;10.55;100.00;101133.94;5094403;28;20044;-71
2022/10/04 08:00:48;;;;;;;16.40;10.65;;;;;;;10.74;100.00;101130.63;5109896;28;20044;-70
2022/10/04 08:03:23;;;;;;;15.38;10.43;;;;;;;10.95;100.00;101144.91;5104744;28;20040;-71
2022/10/04 08:06:10;;;;;;;17.33;11.45;;;;;;;11.13;100.00;101152.19;5109451;28;20497;-71
2022/10/04 08:08:39;;;;;;;15.23;10.43;;;;;;;11.17;100.00;101143.19;5109873;28;20052;-72
2022/10/04 08:11:51;;;;;;;13.77;9.95;;;;;;;11.21;100.00;101142.13;5110649;28;20050;-72
2022/10/04 08:14:26;;;;;;;14.10;10.43;;;;;;;11.25;100.00;101119.91;5101468;28;20051;-70
2022/10/04 08:17:19;;;;;;;17.80;10.60;;;;;;;11.36;99.97;101136.25;5112878;28;20043;-72
2022/10/04 08:20:02;;;;;;;17.80;11.35;;;;;;;11.46;99.61;101126.16;5113786;28;20059;-73
2022/10/04 08:22:38;;;;;;;32.60;11.98;;;;;;;11.57;97.62;101134.56;5108163;28;20048;-71
2022/10/04 08:25:20;;;;;;;16.70;10.65;;;;;;;11.63;96.04;101134.34;5108782;28;20441;-71
2022/10/04 08:31:20;;;;;;;15.25;10.70;;;;;;;11.80;94.71;101139.00;5106498;28;20047;-71
2022/10/04 08:34:00;;;;;;;16.10;10.60;;;;;;;11.89;93.67;101126.22;5096570;28;20044;-75
2022/10/04 08:36:50;;;;;;;16.85;10.45;;;;;;;11.90;93.02;101127.06;5109828;28;20043;-72
2022/10/04 08:39:47;;;;;;;16.30;10.45;;;;;;;11.98;92.10;101127.63;5113031;28;20122;-71
2022/10/04 08:42:47;;;;;;;17.42;11.23;;;;;;;12.08;92.41;101125.47;5112845;28;20517;-74
2022/10/04 08:45:48;;;;;;;17.70;11.40;;;;;;;12.16;90.80;101131.31;5112841;28;20415;-71
2022/10/04 08:48:51;;;;;;;17.75;10.38;;;;;;;12.21;89.89;101134.63;5104251;28;20108;-73
2022/10/04 08:51:53;;;;;;;17.20;10.63;;;;;;;12.17;89.52;101130.38;5112312;28;20067;-71
2022/10/04 08:54:39;;;;;;;14.77;9.90;;;;;;;12.22;90.17;101123.97;5080560;28;20902;-70
2022/10/04 08:57:42;;;;;;;18.15;10.77;;;;;;;12.30;89.89;101127.13;5112482;28;20487;-70
2022/10/04 09:00:36;;;;;;;15.98;9.77;;;;;;;12.48;90.16;101125.50;5109254;28;20403;-71
2022/10/04 09:03:18;;;;;;;16.15;10.35;;;;;;;12.72;88.05;101122.72;5112915;28;20044;-72
2022/10/04 09:06:08;;;;;;;15.57;10.55;;;;;;;12.90;86.79;101125.41;5109457;28;20047;-72
2022/10/04 09:09:12;;;;;;;17.52;10.48;;;;;;;12.96;84.46;101122.47;5110207;28;20154;-74
2022/10/04 09:11:42;;;;;;;18.73;11.40;;;;;;;12.98;84.68;101114.41;5112889;28;20052;-73
2022/10/04 09:14:28;;;;;;;19.02;10.18;;;;;;;13.10;84.09;101119.16;5112995;28;20071;-74
2022/10/04 09:17:19;;;;;;;14.23;9.57;;;;;;;13.05;83.76;101088.44;5112060;28;20058;-73
2022/10/04 09:20:10;;;;;;;13.18;7.35;;;;;;;13.37;79.67;101117.06;5110915;28;20059;-73
2022/10/04 09:23:19;;;;;;;17.70;8.15;;;;;;;13.46;80.74;101132.59;5112015;28;20073;-71
2022/10/04 09:26:32;;;;;;;9.68;7.43;;;;;;;13.51;79.96;101125.25;5105192;28;20418;-73
2022/10/04 09:29:29;;;;;;;11.52;7.93;;;;;;;13.67;80.51;101126.25;5097835;28;20102;-71
2022/10/04 09:32:22;;;;;;;15.90;7.57;;;;;;;13.63;77.97;101121.16;5110271;28;20052;-73
2022/10/04 09:35:16;;;;;;;13.27;7.75;;;;;;;13.50;78.74;101120.00;5109521;28;20150;-72
2022/10/04 09:38:20;;;;;;;13.18;7.88;;;;;;;13.61;79.03;101121.22;5108364;28;20075;-71
2022/10/04 09:41:22;;;;;;;12.88;8.15;;;;;;;13.83;78.36;101109.53;5086934;28;20146;-71
2022/10/04 09:44:23;;;;;;;11.90;8.07;;;;;;;14.00;77.69;101106.91;5109314;28;20058;-72
2022/10/04 09:46:56;;;;;;;13.23;8.18;;;;;;;13.89;76.65;101103.91;5111238;28;20384;-72
2022/10/04 09:49:35;;;;;;;17.00;8.35;;;;;;;13.50;76.79;101094.28;5111844;28;20078;-73
2022/10/04 09:52:16;;;;;;;12.10;8.02;;;;;;;13.47;77.26;101113.03;5112480;28;20591;-74
2022/10/04 09:55:04;;;;;;;12.75;7.75;;;;;;;13.30;78.73;101105.84;5109629;28;20075;-72
2022/10/04 09:58:00;;;;;;;23.05;7.78;;;;;;;13.46;81.20;101094.47;5111409;28;20652;-73
2022/10/04 10:00:37;;;;;;;17.80;8.43;;;;;;;13.57;80.04;101111.66;5109522;28;20071;-72
2022/10/04 10:03:22;;;;;;;15.38;7.80;;;;;;;13.76;81.61;101102.78;5105269;28;20040;-75
2022/10/04 10:06:11;;;;;;;13.18;7.95;;;;;;;13.92;77.40;101103.75;5108022;28;20047;-72
2022/10/04 10:08:49;;;;;;;17.98;8.30;;;;;;;14.15;78.14;101102.63;5111453;28;20059;-74
2022/10/04 10:14:29;;;;;;;12.57;7.63;;;;;;;14.78;73.91;101101.13;5105232;28;20073;-70
2022/10/04 10:17:22;;;;;;;8.20;6.28;;;;;;;14.97;72.02;101099.16;5110854;28;20051;-73
2022/10/04 10:20:16;;;;;;;12.45;7.25;;;;;;;14.88;70.94;101104.16;5111307;28;20044;-73
2022/10/04 10:23:15;;;;;;;11.07;6.63;;;;;;;14.74;71.74;101094.22;5110571;28;20058;-71
2022/10/04 10:26:00;;;;;;;13.15;7.15;;;;;;;14.58;73.27;101093.31;5103100;28;20419;-72
2022/10/04 10:28:32;;;;;;;11.13;6.65;;;;;;;14.36;74.17;101106.84;5108375;28;20069;-71
2022/10/04 10:31:31;;;;;;;15.85;6.68;;;;;;;14.18;76.40;101105.97;5110587;28;20046;-73
2022/10/04 10:34:15;;;;;;;13.20;7.13;;;;;;;14.24;75.30;101100.34;5110958;28;20134;-70
2022/10/04 10:36:59;;;;;;;16.38;7.30;;;;;;;14.25;75.33;101101.19;5107847;28;20078;-71
2022/10/04 10:39:43;;;;;;;11.18;7.20;;;;;;;14.11;75.35;101098.38;5109300;28;20086;-73
2022/10/04 10:42:42;;;;;;;12.82;6.65;;;;;;;14.10;76.47;101100.19;5110285;28;20047;-71
2022/10/04 10:45:43;;;;;;;10.80;6.40;;;;;;;14.01;76.84;101092.63;5110249;28;20449;-71
2022/10/04 10:48:26;;;;;;;14.10;6.68;;;;;;;14.17;77.24;101106.91;5109966;28;20155;-73
2022/10/04 10:51:09;;;;;;;11.57;6.15;;;;;;;14.18;76.67;101078.47;5109577;28;20131;-71
2022/10/04 10:54:12;;;;;;;9.45;5.97;;;;;;;14.45;75.79;101100.22;5109967;28;20051;-71
2022/10/04 10:56:55;;;;;;;9.90;5.75;;;;;;;14.49;75.45;101083.97;5109406;28;20047;-70
2022/10/04 10:59:31;;;;;;;12.38;5.72;;;;;;;14.85;73.57;101107.81;5110158;28;20077;-72
2022/10/04 11:02:24;;;;;;;8.90;5.20;;;;;;;15.02;71.46;101099.78;5109897;28;20066;-75
2022/10/04 11:05:32;;;;;;;7.95;4.85;;;;;;;15.11;71.84;101093.06;5110020;28;20150;-71
2022/10/04 11:08:30;;;;;;;11.30;4.75;;;;;;;15.40;71.13;101094.16;5108331;28;20054;-71
2022/10/04 11:11:03;;;;;;;12.52;5.18;;;;;;;15.49;69.08;101087.44;5108774;28;20429;-72
2022/10/04 11:13:32;;;;;;;6.00;4.20;;;;;;;15.53;68.53;101095.19;5108933;28;20054;-71
2022/10/04 11:16:20;;;;;;;8.73;4.80;;;;;;;15.14;69.61;101071.56;5094180;28;20057;-71
2022/10/04 11:19:27;;;;;;;10.07;5.00;;;;;;;14.99;70.42;101067.94;5106838;28;20059;-73
2022/10/04 11:22:14;;;;;;;6.72;4.95;;;;;;;14.90;71.49;101081.78;5109960;28;20050;-72
2022/10/04 11:24:58;;;;;;;9.82;4.88;;;;;;;14.84;71.42;101076.78;5110088;28;20043;-75
2022/10/04 11:28:03;;;;;;;10.35;4.57;;;;;;;15.05;70.99;101077.44;5104041;28;20128;-75
2022/10/04 11:31:08;;;;;;;7.38;4.63;;;;;;;15.33;70.61;101087.44;5100342;28;20048;-70
2022/10/04 11:34:11;;;;;;;8.73;4.30;;;;;;;15.53;70.36;101078.31;5109782;28;20097;-72
2022/10/04 11:37:19;;;;;;;7.80;4.97;;;;;;;15.60;69.62;101074.38;5107568;28;20051;-72
2022/10/04 11:39:52;;;;;;;9.25;4.93;;;;;;;15.69;69.09;101074.72;5105993;28;20514;-71
2022/10/04 11:43:00;;;;;;;8.30;4.80;;;;;;;15.90;70.51;101071.75;5110356;28;20126;-72
2022/10/04 11:45:45;;;;;;;9.18;5.07;;;;;;;16.07;66.62;101067.13;5028170;28;20145;-71
2022/10/04 11:48:40;;;;;;;10.32;5.28;;;;;;;16.07;67.14;101058.25;5040658;28;20485;-74
2022/10/04 11:51:24;;;;;;;6.93;4.07;;;;;;;16.12;65.71;101033.00;5101072;28;20058;-72
2022/10/04 11:54:16;;;;;;;10.23;4.20;;;;;;;16.55;65.52;101049.09;5116492;28;20055;-70
2022/10/04 11:57:08;;;;;;;10.23;4.18;;;;;;;16.74;63.79;101038.16;5114019;28;20139;-72
2022/10/04 11:59:38;;;;;;;6.07;3.60;;;;;;;16.98;63.67;101035.78;5112553;28;20648;-70
2022/10/04 12:02:27;;;;;;;8.43;3.83;;;;;;;17.07;61.02;101033.34;5117022;28;20118;-75
2022/10/04 12:05:12;;;;;;;8.20;3.53;;;;;;;16.97;62.53;101034.91;5076884;28;20079;-72
2022/10/04 12:08:00;;;;;;;11.82;3.47;;;;;;;17.14;62.61;101023.13;5116639;28;20157;-71
2022/10/04 12:10:37;;;;;;;11.95;3.45;;;;;;;17.37;61.64;101027.84;5101890;28;20135;-71
2022/10/04 12:13:26;;;;;;;10.18;3.40;;;;;;;17.53;60.51;101019.66;5116781;28;20055;-71
2022/10/04 12:16:28;;;;;;;8.52;3.90;;;;;;;17.67;59.93;101024.13;5115837;28;20054;-71
2022/10/04 12:19:42;;;;;;;10.52;4.00;;;;;;;17.73;59.89;101019.25;5113650;28;20043;-71
2022/10/04 12:22:31;;;;;;;8.85;3.08;;;;;;;17.75;59.00;101011.97;5116020;28;20127;-71
2022/10/04 12:25:21;;;;;;;7.07;3.40;;;;;;;17.59;59.45;101010.38;5111851;27;20459;-71
2022/10/04 12:28:04;;;;;;;5.55;3.20;;;;;;;17.44;59.45;100999.72;5105204;27;20052;-72
2022/10/04 12:30:56;;;;;;;5.47;3.10;;;;;;;17.43;60.44;100998.00;5116534;27;20071;-72